createdAt,value
2018-04-26T00:01:49.044Z,4.53
2018-04-26T00:04:16.535Z,4.90
2018-04-26T00:06:44.053Z,5.10
2018-04-26T00:09:12.320Z,4.37
2018-04-26T00:11:40.591Z,3.90
2018-04-26T00:14:08.886Z,3.83
2018-04-26T00:16:36.427Z,4.00
2018-04-26T00:19:04.726Z,4.37
2018-04-26T00:21:32.241Z,3.90
2018-04-26T00:23:59.762Z,4.60
2018-04-26T00:26:27.269Z,3.90
2018-04-26T00:28:54.791Z,4.33
2018-04-26T00:31:22.298Z,4.43
2018-04-26T00:33:50.564Z,4.00
2018-04-26T00:36:18.094Z,4.70
2018-04-26T00:38:45.590Z,4.37
2018-04-26T00:41:13.110Z,4.97
2018-04-26T00:43:40.606Z,4.40
2018-04-26T00:46:08.113Z,4.80
2018-04-26T00:48:35.593Z,4.83
2018-04-26T00:51:03.114Z,4.63
2018-04-26T00:53:31.387Z,4.20
2018-04-26T00:55:59.646Z,4.53
2018-04-26T00:58:27.162Z,5.20
2018-04-26T01:00:54.664Z,3.90
2018-04-26T01:03:22.403Z,4.10
2018-04-26T01:05:49.910Z,3.53
2018-04-26T01:08:17.437Z,4.47
2018-04-26T01:10:44.934Z,3.30
2018-04-26T01:13:12.469Z,4.10
2018-04-26T01:15:40.966Z,4.20
2018-04-26T01:18:09.231Z,4.37
2018-04-26T01:20:37.518Z,4.13
2018-04-26T01:23:06.021Z,4.10
2018-04-26T01:25:33.551Z,3.97
2018-04-26T01:28:01.836Z,3.80
2018-04-26T01:30:30.134Z,4.40
2018-04-26T01:32:57.684Z,4.47
2018-04-26T01:35:25.975Z,4.17
2018-04-26T01:37:53.474Z,4.07
2018-04-26T01:40:20.992Z,4.40
2018-04-26T01:42:48.517Z,3.87
2018-04-26T01:45:16.015Z,3.90
2018-04-26T01:47:43.753Z,3.90
2018-04-26T01:50:11.253Z,3.97
2018-04-26T01:52:38.769Z,4.03
2018-04-26T01:55:07.034Z,3.80
2018-04-26T01:57:34.567Z,4.00
2018-04-26T02:00:02.063Z,3.97
2018-04-26T02:02:30.332Z,5.28
2018-04-26T02:04:58.638Z,4.82
2018-04-26T02:07:26.129Z,4.77
2018-04-26T02:12:18.801Z,4.83
2018-04-26T02:14:46.314Z,4.25
2018-04-26T02:17:13.841Z,4.20
2018-04-26T02:19:41.425Z,5.00
2018-04-26T02:22:08.886Z,4.65
2018-04-26T02:24:37.150Z,4.50
2018-04-26T02:27:04.651Z,4.67
2018-04-26T02:29:32.142Z,4.83
2018-04-26T02:31:59.659Z,4.67
2018-04-26T02:34:27.149Z,4.87
2018-04-26T02:36:54.665Z,4.50
2018-04-26T02:39:22.162Z,5.30
2018-04-26T02:41:49.683Z,4.80
2018-04-26T02:44:17.946Z,4.93
2018-04-26T02:46:45.450Z,5.67
2018-04-26T02:49:13.739Z,5.60
2018-04-26T02:51:41.226Z,5.40
2018-04-26T02:54:08.750Z,5.07
2018-04-26T02:56:36.237Z,5.13
2018-04-26T02:59:03.765Z,5.30
2018-04-26T03:01:31.267Z,5.53
2018-04-26T03:03:58.788Z,5.60
2018-04-26T03:06:26.333Z,5.90
2018-04-26T03:08:53.836Z,5.77
2018-04-26T03:11:21.347Z,5.43
2018-04-26T03:13:48.860Z,6.12
2018-04-26T03:16:16.381Z,6.13
2018-04-26T03:18:43.891Z,5.43
2018-04-26T03:21:13.095Z,5.43
2018-04-26T03:23:40.588Z,5.00
2018-04-26T03:26:08.110Z,6.40
2018-04-26T03:28:35.615Z,5.12
2018-04-26T03:31:03.147Z,6.05
2018-04-26T03:33:30.651Z,5.55
2018-04-26T03:35:58.154Z,5.07
2018-04-26T03:38:26.449Z,5.55
2018-04-26T03:40:53.951Z,5.62
2018-04-26T03:43:21.471Z,5.82
2018-04-26T03:45:48.989Z,5.85
2018-04-26T03:48:16.529Z,5.15
2018-04-26T03:50:44.029Z,5.80
2018-04-26T03:53:12.307Z,5.50
2018-04-26T03:55:39.829Z,6.40
2018-04-26T03:58:07.328Z,5.65
2018-04-26T04:00:47.321Z,5.63
2018-04-26T04:03:26.692Z,5.57
2018-04-26T04:08:55.406Z,5.12
2018-04-26T04:11:22.906Z,5.77
2018-04-26T04:13:50.444Z,5.35
2018-04-26T04:16:17.941Z,5.43
2018-04-26T04:18:46.217Z,5.82
2018-04-26T04:21:13.729Z,6.00
2018-04-26T04:23:41.221Z,5.57
2018-04-26T04:26:11.172Z,6.90
2018-04-26T04:28:38.693Z,5.90
2018-04-26T04:31:06.946Z,6.10
2018-04-26T04:33:34.476Z,6.47
2018-04-26T04:36:01.980Z,6.77
2018-04-26T04:38:30.279Z,5.70
2018-04-26T04:40:57.793Z,6.13
2018-04-26T04:43:25.310Z,6.67
2018-04-26T04:45:52.797Z,6.33
2018-04-26T04:48:20.287Z,5.70
2018-04-26T04:50:48.559Z,5.37
2018-04-26T04:53:16.065Z,5.07
2018-04-26T04:55:51.469Z,6.87
2018-04-26T04:58:19.092Z,5.93
2018-04-26T05:00:47.646Z,5.80
2018-04-26T05:03:15.219Z,5.17
2018-04-26T05:05:43.510Z,5.87
2018-04-26T05:08:11.025Z,5.72
2018-04-26T05:10:39.308Z,5.70
2018-04-26T05:13:07.086Z,5.80
2018-04-26T05:15:34.585Z,5.57
2018-04-26T05:18:03.101Z,5.72
2018-04-26T05:20:30.851Z,5.20
2018-04-26T05:22:58.386Z,6.60
2018-04-26T05:25:25.881Z,5.37
2018-04-26T05:27:54.169Z,5.80
2018-04-26T05:30:23.018Z,4.60
2018-04-26T05:32:50.703Z,5.37
2018-04-26T05:35:18.261Z,5.13
2018-04-26T05:37:45.761Z,4.80
2018-04-26T05:40:13.276Z,5.17
2018-04-26T05:42:40.801Z,4.53
2018-04-26T05:45:08.325Z,4.37
2018-04-26T05:47:36.578Z,4.80
2018-04-26T05:50:04.087Z,4.50
2018-04-26T05:52:31.609Z,5.03
2018-04-26T05:54:59.871Z,3.80
2018-04-26T05:57:27.383Z,3.60
2018-04-26T05:59:54.898Z,3.80
2018-04-26T06:02:23.190Z,4.37
2018-04-26T06:04:53.690Z,4.37
2018-04-26T06:07:21.221Z,4.23
2018-04-26T06:09:48.746Z,4.57
2018-04-26T06:12:17.013Z,4.23
2018-04-26T06:14:45.317Z,4.20
2018-04-26T06:17:12.861Z,3.90
2018-04-26T06:19:40.346Z,3.83
2018-04-26T06:22:07.853Z,4.03
2018-04-26T06:24:35.358Z,3.77
2018-04-26T06:27:02.988Z,3.90
2018-04-26T06:29:30.630Z,3.47
2018-04-26T06:31:58.191Z,4.27
2018-04-26T06:34:25.702Z,3.40
2018-04-26T06:36:53.243Z,2.93
2018-04-26T06:39:21.510Z,3.30
2018-04-26T06:41:49.810Z,3.70
2018-04-26T06:44:17.319Z,2.87
2018-04-26T06:46:44.874Z,3.30
2018-04-26T06:49:12.443Z,3.80
2018-04-26T06:51:39.956Z,3.37
2018-04-26T06:54:07.504Z,3.00
2018-04-26T06:56:35.010Z,3.10
2018-04-26T06:59:02.531Z,3.60
2018-04-26T07:01:30.039Z,3.23
2018-04-26T07:03:57.534Z,2.83
2018-04-26T07:06:25.889Z,2.80
2018-04-26T07:08:53.397Z,3.17
2018-04-26T07:11:20.928Z,2.80
2018-04-26T07:13:49.235Z,2.97
2018-04-26T07:16:16.724Z,2.83
2018-04-26T07:18:44.245Z,3.07
2018-04-26T07:21:11.762Z,2.80
2018-04-26T07:23:39.303Z,2.80
2018-04-26T07:26:06.802Z,3.47
2018-04-26T07:28:35.566Z,3.10
2018-04-26T07:31:03.085Z,3.23
2018-04-26T07:33:30.835Z,3.00
2018-04-26T07:35:58.361Z,2.60
2018-04-26T07:38:25.873Z,3.17
2018-04-26T07:40:53.379Z,2.40
2018-04-26T07:43:20.915Z,2.90
2018-04-26T07:45:48.415Z,3.47
2018-04-26T07:48:16.709Z,3.20
2018-04-26T07:50:44.229Z,2.80
2018-04-26T07:53:11.816Z,2.60
2018-04-26T07:55:39.282Z,3.10
2018-04-26T07:58:06.801Z,3.40
2018-04-26T08:00:34.331Z,3.90
2018-04-26T08:03:01.851Z,3.00
2018-04-26T08:05:30.136Z,2.70
2018-04-26T08:07:58.433Z,3.17
2018-04-26T08:10:25.939Z,2.90
2018-04-26T08:12:53.471Z,3.60
2018-04-26T08:15:20.991Z,3.03
2018-04-26T08:17:48.510Z,3.17
2018-04-26T08:20:16.034Z,3.10
2018-04-26T08:22:43.526Z,3.23
2018-04-26T08:25:11.055Z,3.57
2018-04-26T08:27:38.557Z,3.00
2018-04-26T08:30:06.061Z,2.50
2018-04-26T08:32:33.590Z,2.90
2018-04-26T08:35:01.858Z,2.67
2018-04-26T08:37:30.169Z,3.30
2018-04-26T08:39:57.686Z,2.57
2018-04-26T08:42:25.185Z,2.80
2018-04-26T08:44:52.710Z,2.83
2018-04-26T08:47:21.003Z,2.97
2018-04-26T08:49:48.519Z,3.33
2018-04-26T08:52:16.086Z,3.17
2018-04-26T08:54:43.549Z,3.67
2018-04-26T08:57:11.098Z,3.23
2018-04-26T08:59:38.620Z,3.53
2018-04-26T09:02:06.171Z,3.97
2018-04-26T09:04:34.437Z,3.33
2018-04-26T09:07:01.959Z,2.80
2018-04-26T09:09:29.482Z,2.90
2018-04-26T09:11:56.996Z,3.53
2018-04-26T09:14:24.571Z,2.90
2018-04-26T09:16:52.293Z,3.60
2018-04-26T09:19:19.891Z,3.50
2018-04-26T09:21:47.424Z,3.50
2018-04-26T09:24:14.951Z,3.63
2018-04-26T09:26:42.478Z,3.90
2018-04-26T09:29:10.036Z,3.10
2018-04-26T09:31:37.553Z,3.10
2018-04-26T09:34:05.090Z,3.10
2018-04-26T09:36:32.591Z,2.70
2018-04-26T09:39:00.132Z,2.63
2018-04-26T09:41:27.645Z,2.70
2018-04-26T09:43:55.917Z,2.50
2018-04-26T09:46:23.441Z,2.63
2018-04-26T09:48:50.967Z,2.43
2018-04-26T09:51:18.499Z,2.33
2018-04-26T09:53:45.999Z,2.37
2018-04-26T09:56:13.504Z,2.30
2018-04-26T09:58:41.027Z,2.00
2018-04-26T10:01:09.505Z,2.20
2018-04-26T10:03:38.826Z,2.53
2018-04-26T10:06:26.998Z,2.03
2018-04-26T10:08:54.556Z,2.10
2018-04-26T10:11:22.269Z,2.57
2018-04-26T10:13:49.774Z,1.60
2018-04-26T10:16:17.303Z,2.20
2018-04-26T10:18:44.794Z,2.50
2018-04-26T10:21:12.337Z,2.30
2018-04-26T10:23:39.834Z,2.50
2018-04-26T10:26:08.108Z,2.23
2018-04-26T10:28:36.384Z,2.10
2018-04-26T10:31:04.685Z,1.87
2018-04-26T10:33:32.208Z,2.10
2018-04-26T10:35:59.754Z,1.87
2018-04-26T10:38:27.261Z,2.03
2018-04-26T10:40:54.759Z,2.03
2018-04-26T10:43:22.278Z,2.10
2018-04-26T10:45:49.801Z,2.07
2018-04-26T10:48:17.324Z,2.50
2018-04-26T10:50:44.862Z,1.90
2018-04-26T10:53:12.367Z,1.60
2018-04-26T10:55:39.873Z,2.40
2018-04-26T10:58:08.173Z,1.97
2018-04-26T11:00:35.681Z,1.67
2018-04-26T11:03:03.243Z,1.70
2018-04-26T11:05:31.595Z,1.90
2018-04-26T11:07:59.095Z,1.70
2018-04-26T11:10:27.373Z,1.63
2018-04-26T11:12:55.659Z,2.20
2018-04-26T11:15:23.952Z,1.87
2018-04-26T11:17:51.471Z,2.30
2018-04-26T11:20:18.977Z,1.80
2018-04-26T11:22:46.500Z,2.37
2018-04-26T11:25:14.023Z,2.53
2018-04-26T11:27:41.536Z,2.27
2018-04-26T11:30:09.816Z,2.30
2018-04-26T11:32:38.099Z,2.00
2018-04-26T11:35:05.605Z,1.63
2018-04-26T11:37:33.110Z,1.80
2018-04-26T11:40:00.654Z,1.90
2018-04-26T11:42:28.932Z,2.27
2018-04-26T11:44:56.450Z,1.83
2018-04-26T11:47:23.954Z,1.77
2018-04-26T11:49:51.489Z,1.50
2018-04-26T11:52:19.010Z,2.57
2018-04-26T11:54:46.513Z,2.23
2018-04-26T11:57:14.006Z,2.00
2018-04-26T11:59:42.293Z,2.13
2018-04-26T12:02:09.794Z,1.63
2018-04-26T12:04:37.308Z,1.83
2018-04-26T12:07:04.983Z,1.77
2018-04-26T12:09:32.510Z,1.30
2018-04-26T12:12:00.031Z,1.50
2018-04-26T12:14:27.559Z,1.40
2018-04-26T12:16:55.076Z,2.00
2018-04-26T12:19:22.616Z,1.20
2018-04-26T12:21:50.198Z,1.37
2018-04-26T12:24:17.741Z,1.87
2018-04-26T12:26:45.230Z,1.90
2018-04-26T12:29:12.797Z,1.60
2018-04-26T12:31:40.275Z,1.57
2018-04-26T12:34:08.125Z,1.50
2018-04-26T12:36:36.426Z,1.60
2018-04-26T12:39:03.953Z,1.63
2018-04-26T12:41:32.239Z,1.90
2018-04-26T12:44:00.530Z,1.40
2018-04-26T12:46:28.259Z,1.50
2018-04-26T12:48:59.438Z,1.90
2018-04-26T12:51:28.356Z,1.80
2018-04-26T12:53:55.922Z,2.00
2018-04-26T12:56:23.898Z,1.60
2018-04-26T12:58:52.891Z,1.50
2018-04-26T13:01:20.409Z,1.40
2018-04-26T13:03:48.318Z,1.53
2018-04-26T13:06:15.869Z,2.10
2018-04-26T13:08:43.369Z,1.67
2018-04-26T13:11:10.895Z,1.80
2018-04-26T13:13:38.410Z,3.57
2018-04-26T13:16:06.714Z,1.50
2018-04-26T13:18:34.249Z,1.60
2018-04-26T13:21:02.540Z,1.57
2018-04-26T13:23:30.850Z,1.73
2018-04-26T13:25:58.395Z,1.63
2018-04-26T13:28:25.979Z,1.53
2018-04-26T13:30:54.332Z,1.63
2018-04-26T13:33:23.102Z,1.60
2018-04-26T13:35:51.411Z,1.63
2018-04-26T13:38:19.021Z,1.87
2018-04-26T13:40:46.616Z,1.50
2018-04-26T13:43:14.308Z,1.43
2018-04-26T13:45:41.900Z,1.73
2018-04-26T13:48:09.529Z,1.80
2018-04-26T13:50:37.944Z,1.60
2018-04-26T13:53:05.516Z,1.40
2018-04-26T13:55:34.353Z,1.87
2018-04-26T13:58:02.074Z,2.00
2018-04-26T14:00:30.421Z,1.73
2018-04-26T14:02:57.967Z,1.93
2018-04-26T14:05:31.563Z,1.73
2018-04-26T14:08:06.759Z,1.83
2018-04-26T14:10:34.316Z,1.90
2018-04-26T14:13:01.843Z,1.67
2018-04-26T14:15:29.390Z,1.60
2018-04-26T14:17:58.361Z,1.63
2018-04-26T14:20:25.944Z,1.50
2018-04-26T14:22:53.525Z,1.53
2018-04-26T14:25:21.139Z,1.77
2018-04-26T14:27:48.650Z,1.93
2018-04-26T14:30:16.170Z,1.47
2018-04-26T14:32:43.694Z,1.87
2018-04-26T14:35:12.343Z,2.03
2018-04-26T14:37:39.878Z,1.80
2018-04-26T14:40:07.409Z,1.63
2018-04-26T14:42:35.684Z,1.63
2018-04-26T14:45:04.032Z,1.70
2018-04-26T14:47:31.557Z,1.40
2018-04-26T14:49:59.199Z,1.70
2018-04-26T14:52:26.807Z,1.80
2018-04-26T14:54:54.367Z,1.67
2018-04-26T14:57:21.932Z,1.73
2018-04-26T14:59:49.450Z,1.53
2018-04-26T15:02:17.024Z,1.70
2018-04-26T15:04:44.526Z,1.67
2018-04-26T15:07:12.087Z,1.60
2018-04-26T15:09:39.789Z,1.90
2018-04-26T15:12:07.328Z,2.07
2018-04-26T15:14:34.944Z,1.70
2018-04-26T15:17:02.525Z,1.90
2018-04-26T15:19:30.022Z,1.83
2018-04-26T15:21:58.359Z,1.87
2018-04-26T15:24:26.666Z,1.73
2018-04-26T15:26:54.979Z,1.70
2018-04-26T15:29:22.583Z,1.93
2018-04-26T15:31:50.307Z,5.70
2018-04-26T15:34:17.940Z,3.70
2018-04-26T15:36:46.082Z,1.60
2018-04-26T15:39:13.694Z,1.87
2018-04-26T15:41:41.252Z,1.80
2018-04-26T15:44:08.901Z,1.43
2018-04-26T15:46:36.541Z,1.70
2018-04-26T15:49:04.133Z,2.13
2018-04-26T15:51:31.805Z,1.70
2018-04-26T15:54:11.100Z,1.77
2018-04-26T15:57:01.022Z,1.63
2018-04-26T15:59:40.440Z,1.50
2018-04-26T16:05:44.387Z,1.40
2018-04-26T16:08:29.605Z,1.40
2018-04-26T16:11:16.958Z,1.83
2018-04-26T16:14:02.203Z,1.30
2018-04-26T16:16:47.373Z,1.60
2018-04-26T16:19:34.407Z,1.70
2018-04-26T16:22:19.620Z,1.90
2018-04-26T16:24:58.938Z,1.50
2018-04-26T16:27:43.244Z,1.80
2018-04-26T16:30:23.576Z,1.60
2018-04-26T16:33:04.795Z,1.60
2018-04-26T16:35:43.958Z,1.60
2018-04-26T16:38:23.437Z,1.70
2018-04-26T16:40:50.953Z,1.47
2018-04-26T16:43:18.470Z,1.30
2018-04-26T16:45:46.005Z,2.23
2018-04-26T16:48:14.308Z,1.77
2018-04-26T16:50:41.806Z,1.90
2018-04-26T16:53:09.323Z,1.93
2018-04-26T16:55:36.828Z,1.93
2018-04-26T16:58:04.322Z,1.80
2018-04-26T17:00:32.607Z,1.67
2018-04-26T17:03:00.137Z,1.43
2018-04-26T17:05:27.995Z,1.80
2018-04-26T17:07:55.522Z,2.10
2018-04-26T17:10:23.066Z,1.80
2018-04-26T17:12:50.602Z,1.50
2018-04-26T17:15:18.948Z,1.70
2018-04-26T17:17:46.427Z,1.63
2018-04-26T17:20:13.935Z,1.60
2018-04-26T17:22:41.427Z,1.30
2018-04-26T17:25:08.953Z,1.47
2018-04-26T17:27:36.464Z,1.77
2018-04-26T17:30:04.182Z,1.60
2018-04-26T17:32:31.695Z,1.63
2018-04-26T17:34:59.964Z,1.40
2018-04-26T17:37:27.511Z,1.60
2018-04-26T17:40:01.938Z,1.97
2018-04-26T17:42:29.481Z,1.47
2018-04-26T17:44:56.993Z,1.37
2018-04-26T17:47:24.499Z,1.50
2018-04-26T17:49:52.034Z,1.93
2018-04-26T17:52:19.537Z,1.70
2018-04-26T17:54:47.058Z,1.63
2018-04-26T17:57:14.554Z,1.53
2018-04-26T17:59:44.860Z,2.80
2018-04-26T18:02:12.397Z,1.70
2018-04-26T18:04:39.897Z,1.40
2018-04-26T18:07:07.421Z,1.40
2018-04-26T18:09:35.034Z,1.37
2018-04-26T18:12:02.499Z,1.50
2018-04-26T18:14:30.807Z,1.20
2018-04-26T18:16:58.313Z,1.83
2018-04-26T18:19:25.838Z,1.80
2018-04-26T18:21:53.351Z,1.47
2018-04-26T18:24:21.627Z,1.40
2018-04-26T18:26:49.168Z,1.63
2018-04-26T18:29:17.469Z,1.30
2018-04-26T18:31:45.056Z,1.47
2018-04-26T18:34:12.581Z,1.53
2018-04-26T18:36:40.092Z,1.60
2018-04-26T18:39:07.671Z,1.83
2018-04-26T18:41:35.169Z,1.30
2018-04-26T18:44:03.695Z,1.93
2018-04-26T18:46:31.256Z,1.63
2018-04-26T18:48:58.833Z,1.77
2018-04-26T18:51:26.445Z,1.70
2018-04-26T18:53:54.004Z,1.50
2018-04-26T18:56:21.576Z,1.70
2018-04-26T18:58:49.144Z,2.07
2018-04-26T19:01:16.707Z,1.40
2018-04-26T19:03:44.236Z,1.33
2018-04-26T19:06:12.504Z,1.57
2018-04-26T19:08:40.030Z,1.33
2018-04-26T19:11:07.588Z,1.65
2018-04-26T19:13:35.213Z,1.25
2018-04-26T19:16:02.743Z,1.83
2018-04-26T19:18:30.274Z,1.80
2018-04-26T19:20:57.846Z,1.63
2018-04-26T19:23:25.341Z,1.40
2018-04-26T19:25:53.620Z,2.03
2018-04-26T19:28:21.933Z,1.40
2018-04-26T19:30:49.455Z,1.90
2018-04-26T19:33:17.802Z,1.75
2018-04-26T19:35:45.330Z,1.30
2018-04-26T19:38:13.071Z,1.67
2018-04-26T19:40:40.634Z,1.47
2018-04-26T19:43:08.182Z,1.63
2018-04-26T19:45:36.531Z,1.53
2018-04-26T19:48:04.084Z,1.67
2018-04-26T19:50:31.662Z,2.00
2018-04-26T19:52:59.190Z,2.10
2018-04-26T19:55:26.698Z,2.00
2018-04-26T19:57:55.021Z,2.10
2018-04-26T20:00:22.542Z,1.50
2018-04-26T20:02:50.076Z,1.60
2018-04-26T20:05:17.596Z,1.83
2018-04-26T20:07:45.120Z,1.43
2018-04-26T20:10:13.419Z,1.63
2018-04-26T20:12:41.010Z,1.80
2018-04-26T20:15:08.582Z,1.87
2018-04-26T20:17:36.148Z,1.70
2018-04-26T20:20:03.676Z,1.80
2018-04-26T20:22:31.255Z,2.03
2018-04-26T20:24:58.782Z,1.73
2018-04-26T20:27:26.337Z,2.00
2018-04-26T20:30:01.210Z,2.20
2018-04-26T20:32:28.745Z,1.90
2018-04-26T20:34:56.283Z,1.43
2018-04-26T20:37:23.817Z,2.20
2018-04-26T20:39:52.446Z,1.80
2018-04-26T20:42:19.964Z,1.70
2018-04-26T20:44:48.366Z,1.70
2018-04-26T20:47:17.065Z,1.50
2018-04-26T20:49:44.615Z,1.80
2018-04-26T20:52:12.134Z,1.47
2018-04-26T20:54:39.755Z,1.77
2018-04-26T20:57:07.215Z,1.83
2018-04-26T20:59:34.725Z,1.85
2018-04-26T21:02:02.268Z,1.43
2018-04-26T21:04:30.013Z,1.53
2018-04-26T21:06:57.559Z,2.13
2018-04-26T21:09:25.070Z,2.00
2018-04-26T21:11:52.575Z,1.70
2018-04-26T21:14:20.111Z,1.87
2018-04-26T21:16:47.650Z,1.77
2018-04-26T21:19:15.189Z,1.70
2018-04-26T21:21:42.703Z,1.60
2018-04-26T21:24:10.215Z,1.65
2018-04-26T21:26:37.767Z,1.60
2018-04-26T21:29:05.305Z,1.70
2018-04-26T21:31:32.831Z,1.80
2018-04-26T21:34:01.186Z,1.62
2018-04-26T21:36:28.726Z,1.85
2018-04-26T21:38:56.251Z,1.40
2018-04-26T21:41:23.837Z,1.80
2018-04-26T21:43:51.364Z,2.13
2018-04-26T21:46:18.878Z,1.60
2018-04-26T21:48:46.407Z,1.85
2018-04-26T21:51:19.585Z,1.50
2018-04-26T21:53:53.570Z,2.12
2018-04-26T21:56:27.481Z,1.90
2018-04-26T21:59:00.798Z,1.60
2018-04-26T22:01:34.024Z,1.40
2018-04-26T22:04:06.419Z,1.90
2018-04-26T22:06:33.926Z,2.10
2018-04-26T22:09:01.455Z,1.40
2018-04-26T22:11:29.735Z,2.10
2018-04-26T22:13:58.064Z,1.80
2018-04-26T22:16:25.569Z,2.03
2018-04-26T22:18:53.842Z,2.20
2018-04-26T22:21:22.131Z,1.77
2018-04-26T22:23:49.642Z,1.67
2018-04-26T22:26:17.162Z,1.77
2018-04-26T22:28:44.681Z,2.05
2018-04-26T22:31:12.232Z,2.70
2018-04-26T22:33:40.533Z,2.12
2018-04-26T22:36:08.058Z,1.90
2018-04-26T22:38:35.591Z,2.03
2018-04-26T22:41:03.115Z,2.00
2018-04-26T22:43:31.387Z,2.10
2018-04-26T22:45:58.912Z,1.92
2018-04-26T22:48:26.452Z,1.90
2018-04-26T22:50:53.959Z,1.77
2018-04-26T22:53:21.477Z,2.00
2018-04-26T22:55:49.007Z,2.00
2018-04-26T22:58:17.317Z,1.77
2018-04-26T23:00:44.819Z,2.77
2018-04-26T23:03:12.344Z,2.15
2018-04-26T23:05:39.842Z,1.85
2018-04-26T23:08:07.348Z,1.50
2018-04-26T23:10:34.849Z,1.80
2018-04-26T23:13:02.333Z,2.60
2018-04-26T23:15:30.629Z,2.05
2018-04-26T23:17:58.129Z,2.10
2018-04-26T23:20:25.653Z,2.20
2018-04-26T23:22:53.928Z,1.80
2018-04-26T23:25:21.458Z,2.20
2018-04-26T23:27:49.719Z,2.15
2018-04-26T23:30:17.225Z,2.30
2018-04-26T23:32:44.758Z,2.53
2018-04-26T23:35:13.045Z,2.28
2018-04-26T23:37:40.581Z,2.50
2018-04-26T23:40:08.091Z,2.35
2018-04-26T23:42:35.609Z,2.40
2018-04-26T23:45:03.885Z,2.53
2018-04-26T23:47:32.158Z,2.33
2018-04-26T23:50:00.447Z,2.55
2018-04-26T23:52:28.710Z,2.95
2018-04-26T23:54:57.013Z,3.03
2018-04-26T23:57:24.516Z,2.85
2018-04-26T23:59:52.020Z,2.40
